createdAt,value
2019-02-23T00:00:47.087Z,99.90
2019-02-23T00:03:16.168Z,99.90
2019-02-23T00:05:45.223Z,99.90
2019-02-23T00:08:14.200Z,99.90
2019-02-23T00:10:45.411Z,99.90
2019-02-23T00:13:14.352Z,99.90
2019-02-23T00:15:43.796Z,99.90
2019-02-23T00:18:13.066Z,99.90
2019-02-23T00:20:42.618Z,99.90
2019-02-23T00:23:11.508Z,99.90
2019-02-23T00:25:40.620Z,99.90
2019-02-23T00:28:09.684Z,99.90
2019-02-23T00:30:38.492Z,99.90
2019-02-23T00:33:07.496Z,99.90
2019-02-23T00:35:36.475Z,99.90
2019-02-23T00:38:05.342Z,99.90
2019-02-23T00:40:34.224Z,99.90
2019-02-23T00:43:03.253Z,99.90
2019-02-23T00:45:32.285Z,99.90
2019-02-23T00:48:01.360Z,99.90
2019-02-23T00:50:30.344Z,99.90
2019-02-23T00:53:00.722Z,99.90
2019-02-23T00:55:29.666Z,99.90
2019-02-23T00:57:58.795Z,99.90
2019-02-23T01:00:27.735Z,99.90
2019-02-23T01:02:56.724Z,99.90
2019-02-23T01:05:25.692Z,99.90
2019-02-23T01:07:54.549Z,99.90
2019-02-23T01:10:23.808Z,99.90
2019-02-23T01:12:52.575Z,99.90
2019-02-23T01:15:21.399Z,99.90
2019-02-23T01:17:50.159Z,99.90
2019-02-23T01:20:18.970Z,99.90
2019-02-23T01:22:47.726Z,99.90
2019-02-23T01:25:16.465Z,99.90
2019-02-23T01:27:45.232Z,99.90
2019-02-23T01:30:14.429Z,99.90
2019-02-23T01:32:43.258Z,99.90
2019-02-23T01:35:12.397Z,99.90
2019-02-23T01:37:41.228Z,99.90
2019-02-23T01:40:10.808Z,99.90
2019-02-23T01:42:40.629Z,99.90
2019-02-23T01:45:10.289Z,99.90
2019-02-23T01:47:39.136Z,99.90
2019-02-23T01:50:08.843Z,99.90
2019-02-23T01:52:37.652Z,99.90
2019-02-23T01:55:08.357Z,99.90
2019-02-23T01:57:37.192Z,99.90
2019-02-23T02:00:09.529Z,99.90
2019-02-23T02:02:38.865Z,99.90
2019-02-23T02:05:07.929Z,99.90
2019-02-23T02:07:36.736Z,99.90
2019-02-23T02:10:07.332Z,99.90
2019-02-23T02:12:36.084Z,99.90
2019-02-23T02:15:08.660Z,99.90
2019-02-23T02:17:37.480Z,99.90
2019-02-23T02:20:11.139Z,99.90
2019-02-23T02:22:37.236Z,99.90
2019-02-23T02:25:06.625Z,99.90
2019-02-23T02:27:35.536Z,99.90
2019-02-23T02:30:04.938Z,99.90
2019-02-23T02:32:33.698Z,99.90
2019-02-23T02:35:02.520Z,99.90
2019-02-23T02:37:31.308Z,99.90
2019-02-23T02:40:00.316Z,99.90
2019-02-23T02:42:29.321Z,99.90
2019-02-23T02:44:58.069Z,99.90
2019-02-23T02:47:26.885Z,99.90
2019-02-23T02:49:55.647Z,99.90
2019-02-23T02:52:24.380Z,99.90
2019-02-23T02:54:53.213Z,99.90
2019-02-23T02:57:21.995Z,99.90
2019-02-23T02:59:50.757Z,99.90
2019-02-23T03:02:19.512Z,99.90
2019-02-23T03:04:48.287Z,99.90
2019-02-23T03:07:17.037Z,99.90
2019-02-23T03:09:45.805Z,99.90
2019-02-23T03:12:14.558Z,99.90
2019-02-23T03:14:43.319Z,99.90
2019-02-23T03:17:12.071Z,99.90
2019-02-23T03:19:40.823Z,99.90
2019-02-23T03:22:09.635Z,99.90
2019-02-23T03:24:38.391Z,99.90
2019-02-23T03:27:07.152Z,99.90
2019-02-23T03:29:35.913Z,99.60
2019-02-23T03:32:06.363Z,99.80
2019-02-23T03:34:35.155Z,99.60
2019-02-23T03:37:03.898Z,99.70
2019-02-23T03:39:32.743Z,99.70
2019-02-23T03:42:02.030Z,99.60
2019-02-23T03:44:30.768Z,99.60
2019-02-23T03:46:59.520Z,99.70
2019-02-23T03:49:28.269Z,99.60
2019-02-23T03:51:57.037Z,99.60
2019-02-23T03:54:25.790Z,99.60
2019-02-23T03:56:54.549Z,99.60
2019-02-23T03:59:23.367Z,99.40
2019-02-23T04:01:52.191Z,99.30
2019-02-23T04:04:20.941Z,99.50
2019-02-23T04:06:49.729Z,99.70
2019-02-23T04:09:18.479Z,99.60
2019-02-23T04:11:47.393Z,99.70
2019-02-23T04:14:16.149Z,99.50
2019-02-23T04:16:44.896Z,99.60
2019-02-23T04:19:13.649Z,99.30
2019-02-23T04:21:43.266Z,99.40
2019-02-23T04:24:12.021Z,99.20
2019-02-23T04:26:40.769Z,99.10
2019-02-23T04:29:09.523Z,99.20
2019-02-23T04:31:38.287Z,99.20
2019-02-23T04:34:07.037Z,99.00
2019-02-23T04:36:35.808Z,98.80
2019-02-23T04:39:06.954Z,98.90
2019-02-23T04:41:35.720Z,98.90
2019-02-23T04:44:04.474Z,98.90
2019-02-23T04:46:33.247Z,98.90
2019-02-23T04:49:02.366Z,98.80
2019-02-23T04:51:31.117Z,98.90
2019-02-23T04:53:59.864Z,98.90
2019-02-23T04:56:28.614Z,98.90
2019-02-23T04:58:57.375Z,98.30
2019-02-23T05:01:26.146Z,98.30
2019-02-23T05:03:54.877Z,98.40
2019-02-23T05:06:23.636Z,98.80
2019-02-23T05:08:52.376Z,98.40
2019-02-23T05:11:22.480Z,98.10
2019-02-23T05:13:51.216Z,98.40
2019-02-23T05:16:19.974Z,98.30
2019-02-23T05:18:48.719Z,98.40
2019-02-23T05:21:26.075Z,98.20
2019-02-23T05:23:47.954Z,98.50
2019-02-23T05:26:16.720Z,98.50
2019-02-23T05:28:45.460Z,98.50
2019-02-23T05:31:14.310Z,98.60
2019-02-23T05:33:43.055Z,98.50
2019-02-23T05:36:11.794Z,98.60
2019-02-23T05:38:40.562Z,98.70
2019-02-23T05:41:09.369Z,98.60
2019-02-23T05:43:38.135Z,99.00
2019-02-23T05:46:06.888Z,99.00
2019-02-23T05:48:35.640Z,99.00
2019-02-23T05:51:04.400Z,99.00
2019-02-23T05:53:33.176Z,99.10
2019-02-23T05:56:01.929Z,99.20
2019-02-23T05:58:30.712Z,99.10
2019-02-23T06:01:00.305Z,99.30
2019-02-23T06:03:29.067Z,99.40
2019-02-23T06:05:57.818Z,99.50
2019-02-23T06:08:26.564Z,99.50
2019-02-23T06:10:55.314Z,99.60
2019-02-23T06:13:24.076Z,99.60
2019-02-23T06:15:52.833Z,99.60
2019-02-23T06:18:21.669Z,99.70
2019-02-23T06:20:50.428Z,99.60
2019-02-23T06:23:19.239Z,99.70
2019-02-23T06:25:48.108Z,99.70
2019-02-23T06:28:16.938Z,99.90
2019-02-23T06:30:45.678Z,99.90
2019-02-23T06:33:14.433Z,99.90
2019-02-23T06:35:43.317Z,99.90
2019-02-23T06:38:12.169Z,99.90
2019-02-23T06:40:41.097Z,99.90
2019-02-23T06:43:09.824Z,99.90
2019-02-23T06:45:38.560Z,99.90
2019-02-23T06:48:07.475Z,99.90
2019-02-23T06:50:37.220Z,99.90
2019-02-23T06:53:07.052Z,99.80
2019-02-23T06:55:35.947Z,99.80
2019-02-23T06:58:04.788Z,99.70
2019-02-23T07:00:33.533Z,99.70
2019-02-23T07:03:02.286Z,99.60
2019-02-23T07:05:31.035Z,99.40
2019-02-23T07:07:59.794Z,99.10
2019-02-23T07:10:28.877Z,98.90
2019-02-23T07:12:58.191Z,98.70
2019-02-23T07:15:28.347Z,98.70
2019-02-23T07:17:57.300Z,98.70
2019-02-23T07:20:26.136Z,98.50
2019-02-23T07:22:54.888Z,98.10
2019-02-23T07:25:23.987Z,98.00
2019-02-23T07:27:53.064Z,98.10
2019-02-23T07:30:22.138Z,97.80
2019-02-23T07:32:51.424Z,97.60
2019-02-23T07:35:20.443Z,97.30
2019-02-23T07:37:49.460Z,97.30
2019-02-23T07:40:18.633Z,97.20
2019-02-23T07:42:47.492Z,97.10
2019-02-23T07:45:16.607Z,96.60
2019-02-23T07:47:45.415Z,96.30
2019-02-23T07:50:14.413Z,95.90
2019-02-23T07:52:43.156Z,95.80
2019-02-23T07:55:11.981Z,95.80
2019-02-23T07:57:40.718Z,95.60
2019-02-23T08:00:10.246Z,95.60
2019-02-23T08:02:39.095Z,95.10
2019-02-23T08:05:08.506Z,95.80
2019-02-23T08:07:39.966Z,93.80
2019-02-23T08:10:09.558Z,93.10
2019-02-23T08:12:38.397Z,92.70
2019-02-23T08:15:07.877Z,93.20
2019-02-23T08:17:36.764Z,92.30
2019-02-23T08:20:05.965Z,92.40
2019-02-23T08:22:37.324Z,91.70
2019-02-23T08:25:05.923Z,92.00
2019-02-23T08:27:34.676Z,91.00
2019-02-23T08:30:03.513Z,90.40
2019-02-23T08:32:32.268Z,90.50
2019-02-23T08:35:01.512Z,90.90
2019-02-23T08:37:30.231Z,87.90
2019-02-23T08:39:59.483Z,86.60
2019-02-23T08:42:28.701Z,85.60
2019-02-23T08:44:58.009Z,86.20
2019-02-23T08:47:29.121Z,84.00
2019-02-23T08:49:57.871Z,81.50
2019-02-23T08:52:26.635Z,81.20
2019-02-23T08:54:55.435Z,80.60
2019-02-23T08:57:24.173Z,80.10
2019-02-23T08:59:52.932Z,78.90
2019-02-23T09:02:23.280Z,78.40
2019-02-23T09:05:00.442Z,75.80
2019-02-23T09:07:29.661Z,77.10
2019-02-23T09:09:59.351Z,77.60
2019-02-23T09:12:28.412Z,76.50
2019-02-23T09:14:57.165Z,76.10
2019-02-23T09:17:25.925Z,76.00
2019-02-23T09:19:54.666Z,76.20
2019-02-23T09:22:23.463Z,75.40
2019-02-23T09:24:52.201Z,74.80
2019-02-23T09:27:21.171Z,74.50
2019-02-23T09:29:50.091Z,74.00
2019-02-23T09:32:19.041Z,70.80
2019-02-23T09:34:48.340Z,71.00
2019-02-23T09:37:17.104Z,71.90
2019-02-23T09:39:51.563Z,70.30
2019-02-23T09:42:20.304Z,68.70
2019-02-23T09:44:49.071Z,71.60
2019-02-23T09:47:18.245Z,69.80
2019-02-23T09:49:47.181Z,69.20
2019-02-23T09:52:16.041Z,68.80
2019-02-23T09:54:45.354Z,68.50
2019-02-23T09:57:14.514Z,66.90
2019-02-23T09:59:43.404Z,66.50
2019-02-23T10:02:12.154Z,67.20
2019-02-23T10:04:40.913Z,64.20
2019-02-23T10:07:09.961Z,62.50
2019-02-23T10:09:39.189Z,65.00
2019-02-23T10:12:10.224Z,66.20
2019-02-23T10:14:39.218Z,67.00
2019-02-23T10:17:10.124Z,63.80
2019-02-23T10:19:39.100Z,64.20
2019-02-23T10:22:08.392Z,64.90
2019-02-23T10:24:38.405Z,64.60
2019-02-23T10:27:07.260Z,63.00
2019-02-23T10:29:36.191Z,64.30
2019-02-23T10:32:08.635Z,65.20
2019-02-23T10:34:38.822Z,63.00
2019-02-23T10:37:07.681Z,63.10
2019-02-23T10:39:36.598Z,64.90
2019-02-23T10:42:05.653Z,65.00
2019-02-23T10:44:34.395Z,64.00
2019-02-23T10:47:03.177Z,64.30
2019-02-23T10:49:32.170Z,60.80
2019-02-23T10:52:01.032Z,62.00
2019-02-23T10:54:29.807Z,63.10
2019-02-23T10:56:58.646Z,64.20
2019-02-23T10:59:27.426Z,65.70
2019-02-23T11:01:56.234Z,64.20
2019-02-23T11:04:25.080Z,64.10
2019-02-23T11:06:53.923Z,63.80
2019-02-23T11:09:27.362Z,65.60
2019-02-23T11:11:56.129Z,64.20
2019-02-23T11:14:24.917Z,62.30
2019-02-23T11:16:53.695Z,62.60
2019-02-23T11:19:22.440Z,60.10
2019-02-23T11:21:51.268Z,59.20
2019-02-23T11:24:20.407Z,58.20
2019-02-23T11:26:49.458Z,59.00
2019-02-23T11:29:23.654Z,58.90
2019-02-23T11:32:01.745Z,58.20
2019-02-23T11:34:31.271Z,57.90
2019-02-23T11:37:00.104Z,57.30
2019-02-23T11:39:28.869Z,56.60
2019-02-23T11:41:57.645Z,56.20
2019-02-23T11:44:26.392Z,56.70
2019-02-23T11:47:02.278Z,57.90
2019-02-23T11:49:25.618Z,58.00
2019-02-23T11:51:54.349Z,58.10
2019-02-23T11:54:23.223Z,57.40
2019-02-23T11:56:51.966Z,55.70
2019-02-23T11:59:20.742Z,54.00
2019-02-23T12:01:50.213Z,53.30
2019-02-23T12:04:18.975Z,52.50
2019-02-23T12:06:47.730Z,53.00
2019-02-23T12:09:16.490Z,52.50
2019-02-23T12:11:45.258Z,52.90
2019-02-23T12:14:14.010Z,51.50
2019-02-23T12:16:42.754Z,51.30
2019-02-23T12:19:11.522Z,51.90
2019-02-23T12:21:40.275Z,50.40
2019-02-23T12:24:09.067Z,49.30
2019-02-23T12:26:37.999Z,49.60
2019-02-23T12:29:07.544Z,47.90
2019-02-23T12:31:40.638Z,48.40
2019-02-23T12:34:10.875Z,49.40
2019-02-23T12:36:39.855Z,48.20
2019-02-23T12:39:08.618Z,48.20
2019-02-23T12:41:37.823Z,49.20
2019-02-23T12:44:07.391Z,48.20
2019-02-23T12:46:36.153Z,49.80
2019-02-23T12:49:04.945Z,49.40
2019-02-23T12:51:34.826Z,50.90
2019-02-23T12:54:03.597Z,49.60
2019-02-23T12:56:34.194Z,49.80
2019-02-23T12:59:02.952Z,49.40
2019-02-23T13:01:31.727Z,49.70
2019-02-23T13:04:00.504Z,49.50
2019-02-23T13:06:29.270Z,51.80
2019-02-23T13:09:21.369Z,52.00
2019-02-23T13:12:21.198Z,51.40
2019-02-23T13:15:22.944Z,49.80
2019-02-23T13:18:14.363Z,51.90
2019-02-23T13:21:13.444Z,48.00
2019-02-23T13:24:01.773Z,47.60
2019-02-23T13:26:51.643Z,47.50
2019-02-23T13:29:32.967Z,49.10
2019-02-23T13:32:20.615Z,48.20
2019-02-23T13:35:23.290Z,47.20
2019-02-23T13:38:24.354Z,45.50
2019-02-23T13:41:19.421Z,44.20
2019-02-23T13:44:19.358Z,45.80
2019-02-23T13:47:13.257Z,44.30
2019-02-23T13:50:22.790Z,42.20
2019-02-23T13:53:06.104Z,43.40
2019-02-23T13:56:22.695Z,44.30
2019-02-23T13:59:34.008Z,44.50
2019-02-23T14:02:40.753Z,44.90
2019-02-23T14:05:34.001Z,45.50
2019-02-23T14:08:23.037Z,46.00
2019-02-23T14:11:28.847Z,47.10
2019-02-23T14:14:43.847Z,46.80
2019-02-23T14:17:42.350Z,48.10
2019-02-23T14:20:53.229Z,48.20
2019-02-23T14:23:48.009Z,47.50
2019-02-23T14:26:48.846Z,48.00
2019-02-23T14:30:01.010Z,46.80
2019-02-23T14:33:22.275Z,46.20
2019-02-23T14:36:34.745Z,47.30
2019-02-23T14:39:31.622Z,47.00
2019-02-23T14:42:18.769Z,47.10
2019-02-23T14:45:14.026Z,45.70
2019-02-23T14:48:13.569Z,45.60
2019-02-23T14:50:55.999Z,47.10
2019-02-23T14:53:46.892Z,47.40
2019-02-23T14:56:50.042Z,48.30
2019-02-23T14:59:56.070Z,48.70
2019-02-23T15:03:14.098Z,50.50
2019-02-23T15:06:19.155Z,50.00
2019-02-23T15:09:23.238Z,49.10
2019-02-23T15:12:11.989Z,49.00
2019-02-23T15:15:02.503Z,47.20
2019-02-23T15:17:46.123Z,47.70
2019-02-23T15:20:39.926Z,47.60
2019-02-23T15:23:30.342Z,49.10
2019-02-23T15:26:33.198Z,50.30
2019-02-23T15:29:19.192Z,50.30
2019-02-23T15:32:29.433Z,49.60
2019-02-23T15:35:24.165Z,50.80
2019-02-23T15:38:30.388Z,51.10
2019-02-23T15:41:28.720Z,51.90
2019-02-23T15:44:37.222Z,51.10
2019-02-23T15:47:31.788Z,51.40
2019-02-23T15:50:12.604Z,53.00
2019-02-23T15:52:31.422Z,52.50
2019-02-23T15:55:00.545Z,52.60
2019-02-23T15:57:29.518Z,52.20
2019-02-23T15:59:58.352Z,53.10
2019-02-23T16:02:27.088Z,52.10
2019-02-23T16:04:55.858Z,51.70
2019-02-23T16:07:24.602Z,51.90
2019-02-23T16:09:53.359Z,52.30
2019-02-23T16:12:22.170Z,51.80
2019-02-23T16:14:51.005Z,52.10
2019-02-23T16:17:19.857Z,52.30
2019-02-23T16:19:48.615Z,52.40
2019-02-23T16:22:18.746Z,53.20
2019-02-23T16:24:48.053Z,53.50
2019-02-23T16:27:16.920Z,53.60
2019-02-23T16:29:45.718Z,54.00
2019-02-23T16:32:14.474Z,54.00
2019-02-23T16:34:43.226Z,53.20
2019-02-23T16:37:11.977Z,52.20
2019-02-23T16:39:40.756Z,51.60
2019-02-23T16:42:09.496Z,51.80
2019-02-23T16:44:38.246Z,52.20
2019-02-23T16:47:07.158Z,51.40
2019-02-23T16:49:36.307Z,51.90
2019-02-23T16:52:05.128Z,52.50
2019-02-23T16:54:33.871Z,54.30
2019-02-23T16:57:02.655Z,56.10
2019-02-23T16:59:31.398Z,58.00
2019-02-23T17:02:00.161Z,60.00
2019-02-23T17:04:29.003Z,62.20
2019-02-23T17:06:57.852Z,63.80
2019-02-23T17:09:30.513Z,64.70
2019-02-23T17:12:01.889Z,66.90
2019-02-23T17:14:31.013Z,69.10
2019-02-23T17:16:59.810Z,67.30
2019-02-23T17:19:28.540Z,67.80
2019-02-23T17:21:57.308Z,70.00
2019-02-23T17:24:26.083Z,68.00
2019-02-23T17:26:54.850Z,68.80
2019-02-23T17:29:23.606Z,69.30
2019-02-23T17:31:52.445Z,69.00
2019-02-23T17:34:21.259Z,69.10
2019-02-23T17:36:50.030Z,67.10
2019-02-23T17:39:18.816Z,67.30
2019-02-23T17:41:47.935Z,68.00
2019-02-23T17:44:16.678Z,68.30
2019-02-23T17:46:48.467Z,68.50
2019-02-23T17:49:16.016Z,69.30
2019-02-23T17:51:44.754Z,68.50
2019-02-23T17:54:13.489Z,70.00
2019-02-23T17:56:42.299Z,69.70
2019-02-23T17:59:11.054Z,70.10
2019-02-23T18:01:39.803Z,70.70
2019-02-23T18:04:08.581Z,70.40
2019-02-23T18:06:38.334Z,71.60
2019-02-23T18:09:07.092Z,72.30
2019-02-23T18:11:35.841Z,71.90
2019-02-23T18:14:04.661Z,71.90
2019-02-23T18:16:33.491Z,71.70
2019-02-23T18:19:02.247Z,71.80
2019-02-23T18:21:31.054Z,72.30
2019-02-23T18:23:59.802Z,71.90
2019-02-23T18:26:28.611Z,70.90
2019-02-23T18:28:59.146Z,70.50
2019-02-23T18:31:28.064Z,70.10
2019-02-23T18:33:56.841Z,70.50
2019-02-23T18:36:25.613Z,70.40
2019-02-23T18:38:54.386Z,70.80
2019-02-23T18:41:23.142Z,71.60
2019-02-23T18:43:51.970Z,71.30
2019-02-23T18:46:20.721Z,71.10
2019-02-23T18:48:49.546Z,70.00
2019-02-23T18:51:18.313Z,69.60
2019-02-23T18:53:47.057Z,68.90
2019-02-23T18:56:15.813Z,69.20
2019-02-23T18:58:44.562Z,68.10
2019-02-23T19:01:13.324Z,68.50
2019-02-23T19:03:42.070Z,68.70
2019-02-23T19:06:10.821Z,68.70
2019-02-23T19:08:39.561Z,69.20
2019-02-23T19:11:08.346Z,69.40
2019-02-23T19:13:37.152Z,69.90
2019-02-23T19:16:05.910Z,69.20
2019-02-23T19:18:36.098Z,68.90
2019-02-23T19:21:05.094Z,68.90
2019-02-23T19:23:33.838Z,68.80
2019-02-23T19:26:02.581Z,69.00
2019-02-23T19:28:31.353Z,68.60
2019-02-23T19:31:00.093Z,68.90
2019-02-23T19:33:28.833Z,68.60
2019-02-23T19:35:58.563Z,68.50
2019-02-23T19:38:27.346Z,68.90
2019-02-23T19:40:56.195Z,67.90
2019-02-23T19:43:24.934Z,68.10
2019-02-23T19:45:53.689Z,68.50
2019-02-23T19:48:22.501Z,68.60
2019-02-23T19:50:55.017Z,68.90
2019-02-23T19:53:23.758Z,69.40
2019-02-23T19:55:52.572Z,70.10
2019-02-23T19:58:21.303Z,70.10
2019-02-23T20:00:50.150Z,70.70
2019-02-23T20:03:18.881Z,70.60
2019-02-23T20:05:48.905Z,71.40
2019-02-23T20:08:19.196Z,71.10
2019-02-23T20:10:48.004Z,71.90
2019-02-23T20:13:16.858Z,71.80
2019-02-23T20:15:45.774Z,72.40
2019-02-23T20:18:14.529Z,73.00
2019-02-23T20:20:43.286Z,73.00
2019-02-23T20:23:12.027Z,73.10
2019-02-23T20:25:40.786Z,73.70
2019-02-23T20:28:09.598Z,73.50
2019-02-23T20:30:38.350Z,73.10
2019-02-23T20:33:07.088Z,73.70
2019-02-23T20:35:36.397Z,74.60
2019-02-23T20:38:05.292Z,74.40
2019-02-23T20:40:34.080Z,72.90
2019-02-23T20:43:02.848Z,73.50
2019-02-23T20:45:31.591Z,74.60
2019-02-23T20:48:00.834Z,74.40
2019-02-23T20:50:29.606Z,75.00
2019-02-23T20:52:58.350Z,75.80
2019-02-23T20:55:27.106Z,77.50
2019-02-23T20:57:57.258Z,78.10
2019-02-23T21:00:26.818Z,79.10
2019-02-23T21:02:55.722Z,80.70
2019-02-23T21:05:24.556Z,80.50
2019-02-23T21:07:53.763Z,81.40
2019-02-23T21:10:22.585Z,81.80
2019-02-23T21:12:51.431Z,81.70
2019-02-23T21:15:20.255Z,82.90
2019-02-23T21:17:49.006Z,81.80
2019-02-23T21:20:17.825Z,81.90
2019-02-23T21:22:46.613Z,84.10
2019-02-23T21:25:15.493Z,83.50
2019-02-23T21:27:44.267Z,82.50
2019-02-23T21:30:13.081Z,83.90
2019-02-23T21:32:41.838Z,85.20
2019-02-23T21:35:10.898Z,84.60
2019-02-23T21:37:39.673Z,83.00
2019-02-23T21:40:08.610Z,81.60
2019-02-23T21:42:37.352Z,81.40
2019-02-23T21:45:06.386Z,81.00
2019-02-23T21:47:36.200Z,81.90
2019-02-23T21:50:05.454Z,81.70
2019-02-23T21:52:34.225Z,82.70
2019-02-23T21:55:03.047Z,83.30
2019-02-23T21:57:31.846Z,81.80
2019-02-23T22:00:00.673Z,80.30
2019-02-23T22:02:29.499Z,81.00
2019-02-23T22:04:58.244Z,78.70
2019-02-23T22:07:27.178Z,76.90
2019-02-23T22:09:55.939Z,76.60
2019-02-23T22:12:24.679Z,77.10
2019-02-23T22:14:54.416Z,75.70
2019-02-23T22:17:25.074Z,75.50
2019-02-23T22:19:57.209Z,76.10
2019-02-23T22:22:34.494Z,75.70
2019-02-23T22:25:04.347Z,76.10
2019-02-23T22:27:36.444Z,75.30
2019-02-23T22:30:06.242Z,74.90
2019-02-23T22:32:38.022Z,73.80
2019-02-23T22:35:09.429Z,74.40
2019-02-23T22:37:38.255Z,73.70
2019-02-23T22:40:08.090Z,75.10
2019-02-23T22:42:37.001Z,75.20
2019-02-23T22:45:06.022Z,77.60
2019-02-23T22:47:34.980Z,79.20
2019-02-23T22:50:04.186Z,77.10
2019-02-23T22:52:32.937Z,76.40
2019-02-23T22:55:01.768Z,77.50
2019-02-23T22:57:30.600Z,75.80
2019-02-23T22:59:59.329Z,75.50
2019-02-23T23:02:29.511Z,74.20
2019-02-23T23:04:58.282Z,73.60
2019-02-23T23:07:27.021Z,72.90
2019-02-23T23:09:55.970Z,72.60
2019-02-23T23:12:24.735Z,72.20
2019-02-23T23:14:53.514Z,71.90
2019-02-23T23:17:22.260Z,72.60
2019-02-23T23:19:51.019Z,72.20
2019-02-23T23:22:19.773Z,72.80
2019-02-23T23:24:48.518Z,73.30
2019-02-23T23:27:17.262Z,74.80
2019-02-23T23:29:45.997Z,75.50
2019-02-23T23:32:14.819Z,75.50
2019-02-23T23:34:43.605Z,77.00
2019-02-23T23:37:12.342Z,76.50
2019-02-23T23:39:41.106Z,77.50
2019-02-23T23:42:09.842Z,77.90
2019-02-23T23:44:38.581Z,77.90
2019-02-23T23:47:10.817Z,77.30
2019-02-23T23:49:39.638Z,75.50
2019-02-23T23:52:08.369Z,75.40
2019-02-23T23:54:37.127Z,74.30
2019-02-23T23:57:05.872Z,73.80
2019-02-23T23:59:34.630Z,72.90
